createdAt,value
2023-04-23T00:00:11.169Z,0.00
2023-04-23T00:01:11.174Z,0.00
2023-04-23T00:02:11.157Z,0.00
2023-04-23T00:03:11.289Z,0.00
2023-04-23T00:04:16.295Z,0.00
2023-04-23T00:05:11.130Z,0.00
2023-04-23T00:06:11.112Z,0.00
2023-04-23T00:07:11.103Z,0.00
2023-04-23T00:08:11.080Z,0.00
2023-04-23T00:09:11.065Z,0.00
2023-04-23T00:10:11.155Z,0.00
2023-04-23T00:11:11.054Z,0.00
2023-04-23T00:12:11.043Z,0.00
2023-04-23T00:13:11.028Z,0.00
2023-04-23T00:14:11.015Z,0.00
2023-04-23T00:15:16.024Z,0.00
2023-04-23T00:16:11.037Z,0.00
2023-04-23T00:17:11.016Z,0.00
2023-04-23T00:18:10.969Z,0.00
2023-04-23T00:19:10.962Z,0.00
2023-04-23T00:20:10.951Z,0.00
2023-04-23T00:21:10.932Z,0.00
2023-04-23T00:22:10.933Z,0.00
2023-04-23T00:23:10.911Z,0.00
2023-04-23T00:24:10.907Z,0.00
2023-04-23T00:25:10.884Z,0.00
2023-04-23T00:26:15.915Z,0.00
2023-04-23T00:27:10.861Z,0.00
2023-04-23T00:28:10.851Z,0.00
2023-04-23T00:29:10.840Z,0.00
2023-04-23T00:30:10.833Z,0.00
2023-04-23T00:31:10.819Z,0.00
2023-04-23T00:32:10.899Z,0.00
2023-04-23T00:33:10.845Z,0.00
2023-04-23T00:34:10.790Z,0.00
2023-04-23T00:35:10.776Z,0.00
2023-04-23T00:36:10.775Z,0.00
2023-04-23T00:37:15.780Z,0.00
2023-04-23T00:38:10.748Z,0.00
2023-04-23T00:39:10.729Z,0.00
2023-04-23T00:40:10.714Z,0.00
2023-04-23T00:41:10.719Z,0.00
2023-04-23T00:42:10.710Z,0.00
2023-04-23T00:43:10.695Z,0.00
2023-04-23T00:44:10.672Z,0.00
2023-04-23T00:45:10.666Z,0.00
2023-04-23T00:46:10.698Z,0.00
2023-04-23T00:47:10.642Z,0.00
2023-04-23T00:48:15.670Z,0.00
2023-04-23T00:49:10.624Z,0.00
2023-04-23T00:50:10.619Z,0.00
2023-04-23T00:51:10.603Z,0.00
2023-04-23T00:52:10.579Z,0.00
2023-04-23T00:53:10.574Z,0.00
2023-04-23T00:54:10.569Z,0.00
2023-04-23T00:55:10.551Z,0.00
2023-04-23T00:56:10.554Z,0.00
2023-04-23T00:57:10.531Z,0.00
2023-04-23T00:58:10.518Z,0.00
2023-04-23T00:59:15.529Z,0.00
2023-04-23T01:00:10.504Z,0.00
2023-04-23T01:01:10.518Z,0.00
2023-04-23T01:02:10.523Z,0.00
2023-04-23T01:03:10.600Z,0.00
2023-04-23T01:04:10.618Z,0.00
2023-04-23T01:05:10.441Z,0.00
2023-04-23T01:06:10.449Z,0.00
2023-04-23T01:07:10.417Z,0.00
2023-04-23T01:08:10.410Z,0.00
2023-04-23T01:09:10.389Z,0.00
2023-04-23T01:10:15.399Z,0.00
2023-04-23T01:11:10.384Z,0.00
2023-04-23T01:12:10.366Z,0.00
2023-04-23T01:13:10.349Z,0.00
2023-04-23T01:14:10.335Z,0.00
2023-04-23T01:15:10.324Z,0.00
2023-04-23T01:16:10.323Z,0.00
2023-04-23T01:17:10.322Z,0.00
2023-04-23T01:18:10.302Z,0.00
2023-04-23T01:19:10.275Z,0.00
2023-04-23T01:20:10.296Z,0.00
2023-04-23T01:21:15.285Z,0.00
2023-04-23T01:22:10.247Z,0.00
2023-04-23T01:23:10.244Z,0.00
2023-04-23T01:24:10.227Z,0.00
2023-04-23T01:25:10.213Z,0.00
2023-04-23T01:26:10.205Z,0.00
2023-04-23T01:27:10.192Z,0.00
2023-04-23T01:28:10.176Z,0.00
2023-04-23T01:29:10.185Z,0.00
2023-04-23T01:30:10.156Z,0.00
2023-04-23T01:31:10.177Z,0.00
2023-04-23T01:32:15.160Z,0.00
2023-04-23T01:33:10.123Z,0.00
2023-04-23T01:34:10.105Z,0.00
2023-04-23T01:35:10.105Z,0.00
2023-04-23T01:36:10.111Z,0.00
2023-04-23T01:37:10.077Z,0.00
2023-04-23T01:38:10.058Z,0.00
2023-04-23T01:39:10.049Z,0.00
2023-04-23T01:40:10.047Z,0.00
2023-04-23T01:41:10.054Z,0.00
2023-04-23T01:42:10.068Z,0.00
2023-04-23T01:43:15.043Z,0.00
2023-04-23T01:44:09.997Z,0.00
2023-04-23T01:45:09.988Z,0.00
2023-04-23T01:46:10.022Z,0.00
2023-04-23T01:47:09.977Z,0.00
2023-04-23T01:48:09.946Z,0.00
2023-04-23T01:49:09.931Z,0.00
2023-04-23T01:50:09.938Z,0.00
2023-04-23T01:51:09.920Z,0.00
2023-04-23T01:52:09.916Z,0.00
2023-04-23T01:53:09.898Z,0.00
2023-04-23T01:54:14.907Z,0.00
2023-04-23T01:55:09.876Z,0.00
2023-04-23T01:56:09.873Z,0.00
2023-04-23T01:57:09.843Z,0.00
2023-04-23T01:58:09.831Z,0.00
2023-04-23T01:59:09.825Z,0.00
2023-04-23T02:00:09.816Z,0.00
2023-04-23T02:01:09.848Z,0.00
2023-04-23T02:02:09.796Z,0.00
2023-04-23T02:03:09.878Z,0.00
2023-04-23T02:04:09.922Z,0.00
2023-04-23T02:05:14.774Z,0.00
2023-04-23T02:06:09.757Z,0.00
2023-04-23T02:07:09.728Z,0.00
2023-04-23T02:08:09.738Z,0.00
2023-04-23T02:09:09.715Z,0.00
2023-04-23T02:10:09.692Z,0.00
2023-04-23T02:11:09.696Z,0.00
2023-04-23T02:12:09.687Z,0.00
2023-04-23T02:13:09.666Z,0.00
2023-04-23T02:14:09.646Z,0.00
2023-04-23T02:15:09.641Z,0.00
2023-04-23T02:16:14.691Z,0.00
2023-04-23T02:17:09.611Z,0.00
2023-04-23T02:18:09.612Z,0.00
2023-04-23T02:19:09.590Z,0.00
2023-04-23T02:20:09.581Z,0.00
2023-04-23T02:21:09.579Z,0.00
2023-04-23T02:22:09.559Z,0.00
2023-04-23T02:23:09.547Z,0.00
2023-04-23T02:24:09.557Z,0.00
2023-04-23T02:25:09.526Z,0.00
2023-04-23T02:26:09.520Z,0.00
2023-04-23T02:27:14.525Z,0.00
2023-04-23T02:28:09.492Z,0.00
2023-04-23T02:29:09.477Z,0.00
2023-04-23T02:30:09.489Z,0.00
2023-04-23T02:31:09.506Z,0.00
2023-04-23T02:32:09.438Z,0.00
2023-04-23T02:33:09.433Z,0.00
2023-04-23T02:34:09.420Z,0.00
2023-04-23T02:35:09.434Z,0.00
2023-04-23T02:36:09.419Z,0.00
2023-04-23T02:37:09.390Z,0.00
2023-04-23T02:38:14.397Z,0.00
2023-04-23T02:39:09.364Z,0.00
2023-04-23T02:40:09.406Z,0.00
2023-04-23T02:41:09.366Z,0.00
2023-04-23T02:42:09.342Z,0.00
2023-04-23T02:43:09.320Z,0.00
2023-04-23T02:44:09.304Z,0.00
2023-04-23T02:45:09.296Z,0.00
2023-04-23T02:46:09.293Z,0.00
2023-04-23T02:47:09.272Z,0.00
2023-04-23T02:48:09.264Z,0.00
2023-04-23T02:49:14.275Z,0.00
2023-04-23T02:50:09.242Z,0.00
2023-04-23T02:51:09.237Z,0.00
2023-04-23T02:52:09.218Z,0.00
2023-04-23T02:53:09.219Z,0.00
2023-04-23T02:54:09.199Z,0.00
2023-04-23T02:55:09.185Z,0.00
2023-04-23T02:56:09.206Z,0.00
2023-04-23T02:57:09.162Z,0.00
2023-04-23T02:58:09.146Z,0.00
2023-04-23T02:59:09.135Z,0.00
2023-04-23T03:00:14.149Z,0.00
2023-04-23T03:01:09.167Z,0.00
2023-04-23T03:02:09.216Z,0.00
2023-04-23T03:03:11.112Z,0.00
2023-04-23T03:04:09.194Z,0.00
2023-04-23T03:05:09.065Z,0.00
2023-04-23T03:06:09.067Z,0.00
2023-04-23T03:07:09.055Z,0.00
2023-04-23T03:08:09.036Z,0.00
2023-04-23T03:09:09.016Z,0.00
2023-04-23T03:10:09.023Z,0.00
2023-04-23T03:11:14.046Z,0.00
2023-04-23T03:12:09.006Z,0.00
2023-04-23T03:13:08.971Z,0.00
2023-04-23T03:14:08.970Z,0.00
2023-04-23T03:15:08.960Z,0.00
2023-04-23T03:16:08.988Z,0.00
2023-04-23T03:17:08.935Z,0.00
2023-04-23T03:18:08.934Z,0.00
2023-04-23T03:19:08.904Z,0.00
2023-04-23T03:20:08.892Z,0.00
2023-04-23T03:21:08.892Z,0.00
2023-04-23T03:22:13.912Z,0.00
2023-04-23T03:23:08.869Z,0.00
2023-04-23T03:24:08.861Z,0.00
2023-04-23T03:25:08.839Z,0.00
2023-04-23T03:26:08.828Z,0.00
2023-04-23T03:27:08.847Z,0.00
2023-04-23T03:28:08.801Z,0.00
2023-04-23T03:29:08.790Z,0.00
2023-04-23T03:30:08.792Z,0.00
2023-04-23T03:31:08.839Z,0.00
2023-04-23T03:32:08.766Z,0.00
2023-04-23T03:33:13.769Z,0.00
2023-04-23T03:34:08.749Z,0.00
2023-04-23T03:35:08.732Z,0.00
2023-04-23T03:36:08.721Z,0.00
2023-04-23T03:37:08.708Z,0.00
2023-04-23T03:38:08.702Z,0.00
2023-04-23T03:39:08.686Z,0.00
2023-04-23T03:40:08.667Z,0.00
2023-04-23T03:41:08.655Z,0.00
2023-04-23T03:42:08.668Z,0.00
2023-04-23T03:43:08.658Z,0.00
2023-04-23T03:44:13.646Z,0.00
2023-04-23T03:45:08.611Z,0.00
2023-04-23T03:46:08.621Z,0.00
2023-04-23T03:47:08.604Z,0.00
2023-04-23T03:48:08.590Z,0.00
2023-04-23T03:49:08.567Z,0.00
2023-04-23T03:50:08.576Z,0.00
2023-04-23T03:51:08.542Z,0.00
2023-04-23T03:52:08.561Z,0.00
2023-04-23T03:53:08.519Z,0.00
2023-04-23T03:54:08.518Z,0.00
2023-04-23T03:55:13.517Z,0.00
2023-04-23T03:56:08.481Z,0.00
2023-04-23T03:57:08.501Z,0.00
2023-04-23T03:58:08.462Z,0.00
2023-04-23T03:59:08.472Z,0.00
2023-04-23T04:00:08.459Z,0.00
2023-04-23T04:01:08.440Z,0.00
2023-04-23T04:02:08.554Z,0.00
2023-04-23T04:03:08.490Z,0.00
2023-04-23T04:04:08.698Z,0.00
2023-04-23T04:05:08.586Z,0.00
2023-04-23T04:06:13.410Z,0.00
2023-04-23T04:07:08.374Z,0.00
2023-04-23T04:08:08.355Z,0.00
2023-04-23T04:09:08.347Z,0.00
2023-04-23T04:10:08.327Z,0.00
2023-04-23T04:11:08.404Z,0.00
2023-04-23T04:12:08.339Z,0.00
2023-04-23T04:13:08.297Z,0.00
2023-04-23T04:14:08.282Z,0.00
2023-04-23T04:15:08.302Z,0.00
2023-04-23T04:16:08.300Z,0.00
2023-04-23T04:17:13.283Z,0.00
2023-04-23T04:18:08.247Z,0.00
2023-04-23T04:19:08.233Z,0.00
2023-04-23T04:20:08.252Z,0.00
2023-04-23T04:21:08.206Z,0.00
2023-04-23T04:22:08.199Z,0.00
2023-04-23T04:23:08.182Z,0.00
2023-04-23T04:24:08.181Z,0.00
2023-04-23T04:25:08.167Z,0.00
2023-04-23T04:26:08.148Z,0.00
2023-04-23T04:27:08.149Z,0.00
2023-04-23T04:28:13.144Z,0.00
2023-04-23T04:29:08.115Z,0.00
2023-04-23T04:30:08.108Z,0.00
2023-04-23T04:31:08.151Z,0.00
2023-04-23T04:32:08.092Z,5.62
2023-04-23T04:33:08.067Z,5.62
2023-04-23T04:34:08.055Z,5.62
2023-04-23T04:35:08.042Z,5.62
2023-04-23T04:36:08.036Z,5.62
2023-04-23T04:37:08.043Z,5.62
2023-04-23T04:38:08.006Z,5.62
2023-04-23T04:39:13.018Z,5.62
2023-04-23T04:40:08.000Z,5.62
2023-04-23T04:41:07.980Z,5.62
2023-04-23T04:42:07.991Z,5.62
2023-04-23T04:43:07.962Z,5.62
2023-04-23T04:44:07.940Z,5.62
2023-04-23T04:45:07.931Z,5.62
2023-04-23T04:46:07.917Z,11.25
2023-04-23T04:47:08.083Z,11.25
2023-04-23T04:48:07.899Z,11.25
2023-04-23T04:49:07.883Z,11.25
2023-04-23T04:50:12.893Z,11.25
2023-04-23T04:51:07.873Z,11.25
2023-04-23T04:52:07.850Z,5.62
2023-04-23T04:53:07.846Z,11.25
2023-04-23T04:54:07.836Z,11.25
2023-04-23T04:55:07.830Z,11.25
2023-04-23T04:56:07.804Z,16.88
2023-04-23T04:57:07.793Z,16.88
2023-04-23T04:58:07.799Z,16.88
2023-04-23T04:59:07.777Z,16.88
2023-04-23T05:00:07.779Z,11.25
2023-04-23T05:01:12.801Z,11.25
2023-04-23T05:02:07.807Z,11.25
2023-04-23T05:03:08.142Z,11.25
2023-04-23T05:04:08.294Z,11.25
2023-04-23T05:05:07.751Z,16.88
2023-04-23T05:06:07.700Z,16.88
2023-04-23T05:07:07.677Z,16.88
2023-04-23T05:08:07.678Z,22.50
2023-04-23T05:09:07.656Z,22.50
2023-04-23T05:10:07.662Z,22.50
2023-04-23T05:11:07.638Z,22.50
2023-04-23T05:12:12.654Z,22.50
2023-04-23T05:13:07.621Z,22.50
2023-04-23T05:14:07.605Z,22.50
2023-04-23T05:15:07.594Z,22.50
2023-04-23T05:16:07.616Z,16.88
2023-04-23T05:17:07.581Z,16.88
2023-04-23T05:18:07.584Z,16.88
2023-04-23T05:19:07.563Z,16.88
2023-04-23T05:20:07.552Z,22.50
2023-04-23T05:21:07.525Z,28.12
2023-04-23T05:22:07.508Z,28.12
2023-04-23T05:23:12.528Z,33.75
2023-04-23T05:24:07.492Z,33.75
2023-04-23T05:25:07.501Z,33.75
2023-04-23T05:26:07.467Z,33.75
2023-04-23T05:27:07.449Z,39.38
2023-04-23T05:28:07.450Z,39.38
2023-04-23T05:29:07.455Z,39.38
2023-04-23T05:30:07.426Z,39.38
2023-04-23T05:31:07.401Z,45.00
2023-04-23T05:32:07.448Z,45.00
2023-04-23T05:33:07.440Z,50.62
2023-04-23T05:34:12.421Z,50.62
2023-04-23T05:35:07.376Z,50.62
2023-04-23T05:36:07.365Z,50.62
2023-04-23T05:37:07.350Z,50.62
2023-04-23T05:38:07.344Z,50.62
2023-04-23T05:39:07.309Z,50.62
2023-04-23T05:40:07.307Z,56.25
2023-04-23T05:41:07.285Z,56.25
2023-04-23T05:42:07.279Z,61.88
2023-04-23T05:43:07.270Z,61.88
2023-04-23T05:44:07.252Z,67.50
2023-04-23T05:45:12.263Z,67.50
2023-04-23T05:46:07.468Z,73.12
2023-04-23T05:47:07.219Z,73.12
2023-04-23T05:48:07.223Z,73.12
2023-04-23T05:49:07.198Z,73.12
2023-04-23T05:50:07.213Z,73.12
2023-04-23T05:51:07.173Z,78.75
2023-04-23T05:52:07.162Z,78.75
2023-04-23T05:53:07.157Z,78.75
2023-04-23T05:54:07.145Z,78.75
2023-04-23T05:55:07.123Z,78.75
2023-04-23T05:56:12.137Z,84.38
2023-04-23T05:57:07.119Z,90.00
2023-04-23T05:58:07.111Z,90.00
2023-04-23T05:59:07.079Z,95.62
2023-04-23T06:00:07.095Z,101.25
2023-04-23T06:01:07.053Z,101.25
2023-04-23T06:02:07.255Z,101.25
2023-04-23T06:03:07.181Z,101.25
2023-04-23T06:04:07.299Z,101.25
2023-04-23T06:05:07.197Z,106.88
2023-04-23T06:06:07.026Z,112.50
2023-04-23T06:07:12.007Z,123.75
2023-04-23T06:08:06.988Z,140.62
2023-04-23T06:09:06.964Z,157.50
2023-04-23T06:10:06.950Z,157.50
2023-04-23T06:11:06.938Z,151.88
2023-04-23T06:12:06.939Z,146.25
2023-04-23T06:13:06.924Z,129.38
2023-04-23T06:14:06.906Z,118.12
2023-04-23T06:15:06.889Z,106.88
2023-04-23T06:16:06.912Z,101.25
2023-04-23T06:17:06.871Z,90.00
2023-04-23T06:18:11.972Z,78.75
2023-04-23T06:19:06.849Z,78.75
2023-04-23T06:20:06.859Z,78.75
2023-04-23T06:21:06.831Z,78.75
2023-04-23T06:22:06.838Z,84.38
2023-04-23T06:23:06.820Z,106.88
2023-04-23T06:24:06.820Z,90.00
2023-04-23T06:25:06.786Z,95.62
2023-04-23T06:26:06.786Z,101.25
2023-04-23T06:27:06.752Z,101.25
2023-04-23T06:28:06.754Z,270.00
2023-04-23T06:29:11.753Z,281.25
2023-04-23T06:30:06.738Z,270.00
2023-04-23T06:31:06.724Z,236.25
2023-04-23T06:32:06.721Z,230.62
2023-04-23T06:33:06.729Z,241.88
2023-04-23T06:34:06.683Z,275.62
2023-04-23T06:35:06.964Z,270.00
2023-04-23T06:36:06.655Z,258.75
2023-04-23T06:37:06.638Z,225.00
2023-04-23T06:38:06.653Z,230.62
2023-04-23T06:39:06.629Z,236.25
2023-04-23T06:40:11.633Z,213.75
2023-04-23T06:41:06.597Z,213.75
2023-04-23T06:42:06.585Z,213.75
2023-04-23T06:43:06.569Z,196.88
2023-04-23T06:44:06.566Z,168.75
2023-04-23T06:45:06.608Z,168.75
2023-04-23T06:46:06.544Z,219.38
2023-04-23T06:47:06.567Z,264.38
2023-04-23T06:48:06.567Z,309.38
2023-04-23T06:49:06.510Z,292.50
2023-04-23T06:50:06.522Z,320.62
2023-04-23T06:51:11.512Z,360.00
2023-04-23T06:52:06.468Z,382.50
2023-04-23T06:53:06.461Z,399.38
2023-04-23T06:54:06.482Z,388.12
2023-04-23T06:55:06.446Z,337.50
2023-04-23T06:56:06.420Z,320.62
2023-04-23T06:57:06.406Z,303.75
2023-04-23T06:58:06.397Z,286.88
2023-04-23T06:59:06.398Z,258.75
2023-04-23T07:00:06.381Z,264.38
2023-04-23T07:01:06.495Z,241.88
2023-04-23T07:02:11.381Z,213.75
2023-04-23T07:03:06.462Z,213.75
2023-04-23T07:04:06.370Z,213.75
2023-04-23T07:05:06.324Z,180.00
2023-04-23T07:06:06.327Z,191.25
2023-04-23T07:07:06.309Z,185.62
2023-04-23T07:08:06.294Z,174.38
2023-04-23T07:09:06.299Z,180.00
2023-04-23T07:10:06.297Z,202.50
2023-04-23T07:11:06.270Z,213.75
2023-04-23T07:12:06.463Z,225.00
2023-04-23T07:13:11.273Z,213.75
2023-04-23T07:14:06.248Z,219.38
2023-04-23T07:15:06.228Z,208.12
2023-04-23T07:16:06.222Z,219.38
2023-04-23T07:17:06.316Z,230.62
2023-04-23T07:18:06.190Z,247.50
2023-04-23T07:19:06.191Z,151.88
2023-04-23T07:20:06.170Z,253.12
2023-04-23T07:21:06.163Z,247.50
2023-04-23T07:22:06.158Z,219.38
2023-04-23T07:23:06.138Z,253.12
2023-04-23T07:24:11.213Z,241.88
2023-04-23T07:25:06.183Z,303.75
2023-04-23T07:26:06.122Z,337.50
2023-04-23T07:27:06.121Z,315.00
2023-04-23T07:28:06.087Z,180.00
2023-04-23T07:29:06.080Z,196.88
2023-04-23T07:30:06.062Z,258.75
2023-04-23T07:31:06.055Z,225.00
2023-04-23T07:32:06.146Z,196.88
2023-04-23T07:33:06.080Z,225.00
2023-04-23T07:34:06.027Z,236.25
2023-04-23T07:35:11.025Z,241.88
2023-04-23T07:36:06.005Z,264.38
2023-04-23T07:37:05.986Z,286.88
2023-04-23T07:38:05.981Z,225.00
2023-04-23T07:39:05.995Z,174.38
2023-04-23T07:40:05.949Z,168.75
2023-04-23T07:41:05.938Z,236.25
2023-04-23T07:42:05.949Z,241.88
2023-04-23T07:43:05.930Z,258.75
2023-04-23T07:44:05.908Z,298.12
2023-04-23T07:45:05.898Z,292.50
2023-04-23T07:46:10.912Z,241.88
2023-04-23T07:47:05.865Z,264.38
2023-04-23T07:48:05.866Z,281.25
2023-04-23T07:49:05.841Z,264.38
2023-04-23T07:50:05.842Z,264.38
2023-04-23T07:51:05.822Z,253.12
2023-04-23T07:52:05.812Z,258.75
2023-04-23T07:53:05.801Z,326.25
2023-04-23T07:54:05.788Z,292.50
2023-04-23T07:55:05.787Z,399.38
2023-04-23T07:56:05.765Z,343.12
2023-04-23T07:57:10.792Z,343.12
2023-04-23T07:58:05.754Z,303.75
2023-04-23T07:59:05.731Z,315.00
2023-04-23T08:00:05.729Z,292.50
2023-04-23T08:01:05.706Z,253.12
2023-04-23T08:02:05.781Z,286.88
2023-04-23T08:03:05.875Z,286.88
2023-04-23T08:04:06.108Z,247.50
2023-04-23T08:05:05.724Z,202.50
2023-04-23T08:06:05.650Z,185.62
2023-04-23T08:07:05.638Z,196.88
2023-04-23T08:08:10.662Z,230.62
2023-04-23T08:09:05.614Z,298.12
2023-04-23T08:10:05.625Z,365.62
2023-04-23T08:11:05.598Z,360.00
2023-04-23T08:12:05.588Z,337.50
2023-04-23T08:13:05.598Z,315.00
2023-04-23T08:14:05.562Z,399.38
2023-04-23T08:15:05.573Z,270.00
2023-04-23T08:16:05.579Z,230.62
2023-04-23T08:17:05.523Z,247.50
2023-04-23T08:18:05.521Z,292.50
2023-04-23T08:19:10.532Z,354.38
2023-04-23T08:20:05.519Z,371.25
2023-04-23T08:21:05.511Z,343.12
2023-04-23T08:22:05.473Z,331.88
2023-04-23T08:23:05.470Z,298.12
2023-04-23T08:24:05.460Z,281.25
2023-04-23T08:25:05.448Z,286.88
2023-04-23T08:26:05.423Z,303.75
2023-04-23T08:27:05.406Z,315.00
2023-04-23T08:28:05.401Z,326.25
2023-04-23T08:29:05.420Z,483.75
2023-04-23T08:30:10.412Z,399.38
2023-04-23T08:31:15.188Z,421.88
2023-04-23T08:32:05.404Z,731.25
2023-04-23T08:33:05.372Z,680.62
2023-04-23T08:34:05.340Z,703.12
2023-04-23T08:35:05.335Z,472.50
2023-04-23T08:36:05.313Z,742.50
2023-04-23T08:37:05.295Z,686.25
2023-04-23T08:38:05.285Z,466.88
2023-04-23T08:39:05.293Z,309.38
2023-04-23T08:40:05.294Z,241.88
2023-04-23T08:41:10.275Z,388.12
2023-04-23T08:42:05.241Z,466.88
2023-04-23T08:43:05.235Z,523.12
2023-04-23T08:44:05.231Z,579.38
2023-04-23T08:45:05.262Z,337.50
2023-04-23T08:46:05.225Z,331.88
2023-04-23T08:47:05.187Z,506.25
2023-04-23T08:48:05.209Z,393.75
2023-04-23T08:49:05.158Z,545.62
2023-04-23T08:50:05.160Z,1029.38
2023-04-23T08:51:05.139Z,1085.62
2023-04-23T08:52:10.190Z,1203.75
2023-04-23T08:53:05.120Z,1293.75
2023-04-23T08:54:05.139Z,1715.62
2023-04-23T08:55:05.143Z,725.62
2023-04-23T08:56:05.085Z,1113.75
2023-04-23T08:57:05.161Z,843.75
2023-04-23T08:58:05.083Z,1136.25
2023-04-23T08:59:05.056Z,1856.25
2023-04-23T09:00:05.051Z,1215.00
2023-04-23T09:01:05.164Z,1226.25
2023-04-23T09:02:05.058Z,433.12
2023-04-23T09:03:10.269Z,663.75
2023-04-23T09:04:05.080Z,753.75
2023-04-23T09:05:05.000Z,860.62
2023-04-23T09:06:04.990Z,275.62
2023-04-23T09:07:04.955Z,258.75
2023-04-23T09:08:04.950Z,264.38
2023-04-23T09:09:04.951Z,1130.62
2023-04-23T09:10:04.951Z,298.12
2023-04-23T09:11:04.929Z,320.62
2023-04-23T09:12:04.962Z,371.25
2023-04-23T09:13:04.926Z,511.88
2023-04-23T09:14:09.900Z,534.38
2023-04-23T09:15:04.917Z,573.75
2023-04-23T09:16:04.907Z,1170.00
2023-04-23T09:17:04.865Z,1080.00
2023-04-23T09:18:04.923Z,736.88
2023-04-23T09:19:04.826Z,500.62
2023-04-23T09:20:04.830Z,545.62
2023-04-23T09:21:04.805Z,444.38
2023-04-23T09:22:04.803Z,528.75
2023-04-23T09:23:04.778Z,821.25
2023-04-23T09:24:04.793Z,871.88
2023-04-23T09:25:09.791Z,821.25
2023-04-23T09:26:04.744Z,905.62
2023-04-23T09:27:04.737Z,1080.00
2023-04-23T09:28:04.720Z,444.38
2023-04-23T09:29:04.710Z,1490.62
2023-04-23T09:30:04.760Z,1732.50
2023-04-23T09:31:04.705Z,1456.88
2023-04-23T09:32:04.699Z,393.75
2023-04-23T09:33:04.712Z,376.88
2023-04-23T09:34:04.656Z,393.75
2023-04-23T09:35:04.660Z,686.25
2023-04-23T09:36:09.826Z,725.62
2023-04-23T09:37:04.619Z,635.62
2023-04-23T09:38:04.622Z,500.62
2023-04-23T09:39:04.599Z,523.12
2023-04-23T09:40:04.584Z,590.62
2023-04-23T09:41:04.586Z,646.88
2023-04-23T09:42:04.605Z,585.00
2023-04-23T09:43:04.556Z,495.00
2023-04-23T09:44:04.543Z,511.88
2023-04-23T09:45:04.646Z,450.00
2023-04-23T09:46:04.566Z,438.75
2023-04-23T09:47:09.535Z,478.12
2023-04-23T09:48:04.552Z,596.25
2023-04-23T09:49:04.512Z,652.50
2023-04-23T09:50:04.476Z,658.12
2023-04-23T09:51:04.472Z,613.12
2023-04-23T09:52:04.454Z,697.50
2023-04-23T09:53:04.436Z,748.12
2023-04-23T09:54:04.465Z,781.88
2023-04-23T09:55:04.476Z,810.00
2023-04-23T09:56:04.415Z,731.25
2023-04-23T09:57:04.393Z,630.00
2023-04-23T09:58:09.401Z,511.88
2023-04-23T09:59:04.368Z,466.88
2023-04-23T10:00:14.218Z,618.75
2023-04-23T10:01:04.404Z,652.50
2023-04-23T10:02:04.337Z,787.50
2023-04-23T10:03:04.455Z,804.38
2023-04-23T10:04:04.559Z,697.50
2023-04-23T10:05:21.256Z,691.88
2023-04-23T10:06:05.318Z,731.25
2023-04-23T10:07:18.149Z,607.50
2023-04-23T10:08:04.275Z,961.88
2023-04-23T10:09:09.276Z,450.00
2023-04-23T10:10:04.253Z,433.12
2023-04-23T10:11:20.092Z,607.50
2023-04-23T10:12:04.245Z,669.38
2023-04-23T10:13:04.206Z,652.50
2023-04-23T10:14:04.212Z,669.38
2023-04-23T10:15:04.200Z,703.12
2023-04-23T10:16:14.553Z,770.62
2023-04-23T10:17:05.254Z,793.12
2023-04-23T10:18:04.175Z,675.00
2023-04-23T10:19:04.148Z,888.75
2023-04-23T10:20:09.168Z,714.38
2023-04-23T10:21:04.176Z,855.00
2023-04-23T10:22:18.490Z,821.25
2023-04-23T10:23:04.099Z,826.88
2023-04-23T10:24:04.154Z,753.75
2023-04-23T10:25:04.072Z,725.62
2023-04-23T10:26:04.064Z,691.88
2023-04-23T10:27:04.055Z,675.00
2023-04-23T10:28:04.037Z,697.50
2023-04-23T10:29:04.046Z,770.62
2023-04-23T10:30:05.965Z,838.12
2023-04-23T10:31:09.080Z,646.88
2023-04-23T10:32:03.994Z,708.75
2023-04-23T10:33:04.037Z,714.38
2023-04-23T10:34:04.020Z,697.50
2023-04-23T10:35:03.966Z,720.00
2023-04-23T10:36:03.994Z,708.75
2023-04-23T10:37:03.935Z,686.25
2023-04-23T10:38:03.926Z,669.38
2023-04-23T10:39:03.917Z,770.62
2023-04-23T10:40:03.901Z,832.50
2023-04-23T10:41:03.907Z,855.00
2023-04-23T10:42:08.968Z,793.12
2023-04-23T10:43:03.877Z,810.00
2023-04-23T10:44:03.855Z,675.00
2023-04-23T10:45:13.063Z,506.25
2023-04-23T10:46:04.870Z,489.38
2023-04-23T10:47:03.830Z,540.00
2023-04-23T10:48:03.893Z,568.12
2023-04-23T10:49:03.804Z,551.25
2023-04-23T10:50:03.972Z,624.38
2023-04-23T10:51:28.425Z,590.62
2023-04-23T10:52:17.901Z,590.62
2023-04-23T10:53:09.789Z,596.25
2023-04-23T10:54:03.787Z,658.12
2023-04-23T10:55:03.736Z,871.88
2023-04-23T10:56:03.741Z,1468.12
2023-04-23T10:57:03.725Z,1687.50
2023-04-23T10:58:03.750Z,1344.38
2023-04-23T10:59:03.698Z,1603.12
2023-04-23T11:00:03.728Z,1771.88
2023-04-23T11:01:03.678Z,2075.62
2023-04-23T11:02:03.697Z,1552.50
2023-04-23T11:03:03.798Z,1293.75
2023-04-23T11:04:08.794Z,978.75
2023-04-23T11:05:03.953Z,1406.25
2023-04-23T11:06:03.702Z,1198.12
2023-04-23T11:07:03.602Z,1158.75
2023-04-23T11:08:14.687Z,1046.25
2023-04-23T11:09:04.579Z,1018.12
2023-04-23T11:10:03.562Z,1209.38
2023-04-23T11:11:03.561Z,939.38
2023-04-23T11:12:03.594Z,753.75
2023-04-23T11:13:03.541Z,877.50
2023-04-23T11:14:03.521Z,1051.88
2023-04-23T11:15:08.529Z,922.50
2023-04-23T11:16:03.551Z,607.50
2023-04-23T11:17:03.487Z,601.88
2023-04-23T11:18:03.543Z,495.00
2023-04-23T11:19:03.544Z,444.38
2023-04-23T11:20:03.451Z,444.38
2023-04-23T11:21:03.448Z,450.00
2023-04-23T11:22:03.422Z,450.00
2023-04-23T11:23:03.416Z,455.62
2023-04-23T11:24:03.440Z,483.75
2023-04-23T11:25:03.395Z,534.38
2023-04-23T11:26:08.412Z,596.25
2023-04-23T11:27:03.373Z,630.00
2023-04-23T11:28:03.359Z,669.38
2023-04-23T11:29:03.350Z,714.38
2023-04-23T11:30:03.358Z,793.12
2023-04-23T11:31:03.337Z,1012.50
2023-04-23T11:32:04.122Z,1215.00
2023-04-23T11:33:03.381Z,1411.88
2023-04-23T11:34:03.303Z,1575.00
2023-04-23T11:35:03.300Z,1282.50
2023-04-23T11:36:03.324Z,933.75
2023-04-23T11:37:08.283Z,939.38
2023-04-23T11:38:03.254Z,804.38
2023-04-23T11:39:03.245Z,776.25
2023-04-23T11:40:03.250Z,1113.75
2023-04-23T11:41:03.231Z,765.00
2023-04-23T11:42:03.356Z,720.00
2023-04-23T11:43:03.201Z,590.62
2023-04-23T11:44:03.190Z,579.38
2023-04-23T11:45:03.177Z,669.38
2023-04-23T11:46:04.249Z,1012.50
2023-04-23T11:47:03.151Z,1080.00
2023-04-23T11:48:08.209Z,1102.50
2023-04-23T11:49:03.130Z,1091.25
2023-04-23T11:50:03.114Z,866.25
2023-04-23T11:51:03.118Z,866.25
2023-04-23T11:52:03.114Z,815.62
2023-04-23T11:53:03.083Z,826.88
2023-04-23T11:54:03.119Z,883.12
2023-04-23T11:55:03.099Z,2598.75
2023-04-23T11:56:03.113Z,1980.00
2023-04-23T11:57:03.041Z,2711.25
2023-04-23T11:58:03.041Z,2199.38
2023-04-23T11:59:08.060Z,2688.75
2023-04-23T12:00:03.002Z,455.62
2023-04-23T12:01:03.021Z,753.75
2023-04-23T12:02:03.086Z,1783.12
2023-04-23T12:03:03.200Z,1968.75
2023-04-23T12:04:03.160Z,1957.50
2023-04-23T12:05:03.090Z,1861.88
2023-04-23T12:06:02.949Z,1293.75
2023-04-23T12:07:07.993Z,1243.12
2023-04-23T12:08:02.950Z,455.62
2023-04-23T12:09:02.901Z,365.62
2023-04-23T12:10:07.912Z,568.12
2023-04-23T12:11:02.890Z,916.88
2023-04-23T12:12:02.888Z,1625.62
2023-04-23T12:13:02.861Z,2345.62
2023-04-23T12:14:02.911Z,2812.50
2023-04-23T12:15:02.867Z,3223.12
2023-04-23T12:16:02.904Z,3414.38
2023-04-23T12:17:02.815Z,3240.00
2023-04-23T12:18:02.948Z,3003.75
2023-04-23T12:19:02.790Z,3195.00
2023-04-23T12:20:02.780Z,3549.38
2023-04-23T12:21:07.944Z,3470.62
2023-04-23T12:22:02.782Z,3510.00
2023-04-23T12:23:02.767Z,3380.62
2023-04-23T12:24:02.739Z,3431.25
2023-04-23T12:25:02.729Z,3442.50
2023-04-23T12:26:02.712Z,3009.38
2023-04-23T12:27:03.141Z,3043.12
2023-04-23T12:28:02.713Z,3200.62
2023-04-23T12:29:02.683Z,2880.00
2023-04-23T12:30:04.902Z,2756.25
2023-04-23T12:31:02.770Z,3172.50
2023-04-23T12:32:02.660Z,3037.50
2023-04-23T12:33:02.817Z,3133.12
2023-04-23T12:34:07.642Z,3206.25
2023-04-23T12:35:02.635Z,3127.50
2023-04-23T12:36:02.643Z,3093.75
2023-04-23T12:37:02.600Z,1738.12
2023-04-23T12:38:02.587Z,534.38
2023-04-23T12:39:02.699Z,388.12
2023-04-23T12:40:02.561Z,371.25
2023-04-23T12:41:02.566Z,371.25
2023-04-23T12:42:02.617Z,371.25
2023-04-23T12:43:02.529Z,360.00
2023-04-23T12:44:02.531Z,337.50
2023-04-23T12:45:02.514Z,326.25
2023-04-23T12:46:02.564Z,303.75